createdAt,value
2018-07-31T00:00:21.533Z,51.87
2018-07-31T00:02:50.821Z,51.36
2018-07-31T00:05:19.992Z,50.48
2018-07-31T00:07:49.165Z,50.82
2018-07-31T00:10:18.364Z,51.80
2018-07-31T00:12:47.524Z,51.96
2018-07-31T00:15:16.688Z,51.79
2018-07-31T00:17:45.854Z,52.26
2018-07-31T00:20:15.009Z,52.85
2018-07-31T00:22:44.164Z,53.51
2018-07-31T00:25:13.326Z,53.58
2018-07-31T00:27:42.492Z,54.54
2018-07-31T00:30:11.666Z,54.36
2018-07-31T00:32:40.819Z,55.37
2018-07-31T00:35:10.000Z,54.54
2018-07-31T00:37:39.168Z,55.34
2018-07-31T00:40:08.328Z,54.66
2018-07-31T00:42:37.688Z,55.52
2018-07-31T00:45:07.027Z,56.11
2018-07-31T00:47:36.184Z,55.90
2018-07-31T00:50:05.138Z,56.24
2018-07-31T00:52:34.321Z,56.01
2018-07-31T00:55:03.490Z,56.67
2018-07-31T00:57:32.664Z,56.35
2018-07-31T01:00:01.839Z,57.13
2018-07-31T01:02:31.011Z,55.96
2018-07-31T01:05:00.167Z,56.27
2018-07-31T01:07:29.338Z,55.79
2018-07-31T01:09:58.497Z,56.67
2018-07-31T01:12:27.669Z,56.87
2018-07-31T01:14:56.828Z,57.62
2018-07-31T01:17:25.995Z,57.70
2018-07-31T01:19:55.157Z,57.45
2018-07-31T01:22:24.335Z,57.57
2018-07-31T01:24:53.519Z,57.72
2018-07-31T01:27:22.675Z,57.79
2018-07-31T01:29:51.845Z,59.55
2018-07-31T01:32:21.004Z,57.92
2018-07-31T01:34:50.164Z,58.37
2018-07-31T01:37:19.329Z,59.34
2018-07-31T01:39:48.496Z,58.40
2018-07-31T01:42:17.660Z,59.24
2018-07-31T01:44:46.826Z,58.80
2018-07-31T01:47:16.095Z,58.66
2018-07-31T01:49:45.264Z,59.13
2018-07-31T01:52:14.423Z,59.15
2018-07-31T01:54:43.964Z,59.43
2018-07-31T01:57:13.195Z,59.77
2018-07-31T01:59:42.203Z,59.59
2018-07-31T02:02:11.296Z,60.50
2018-07-31T02:04:40.477Z,60.36
2018-07-31T02:07:09.645Z,61.00
2018-07-31T02:09:38.816Z,60.40
2018-07-31T02:12:07.972Z,60.53
2018-07-31T02:14:37.144Z,61.00
2018-07-31T02:17:06.596Z,61.00
2018-07-31T02:19:35.751Z,60.86
2018-07-31T02:22:04.909Z,60.97
2018-07-31T02:24:34.067Z,61.38
2018-07-31T02:27:03.240Z,61.56
2018-07-31T02:29:37.649Z,61.29
2018-07-31T02:32:06.827Z,61.89
2018-07-31T02:34:36.032Z,61.96
2018-07-31T02:37:05.589Z,62.15
2018-07-31T02:39:34.731Z,63.11
2018-07-31T02:42:03.916Z,63.24
2018-07-31T02:44:33.072Z,62.83
2018-07-31T02:47:02.135Z,63.69
2018-07-31T02:49:31.075Z,63.41
2018-07-31T02:52:00.244Z,63.73
2018-07-31T02:54:29.401Z,63.22
2018-07-31T02:56:58.572Z,63.61
2018-07-31T02:59:27.747Z,62.72
2018-07-31T03:01:56.913Z,63.20
2018-07-31T03:04:26.072Z,63.87
2018-07-31T03:06:55.236Z,64.09
2018-07-31T03:09:24.405Z,64.24
2018-07-31T03:11:53.573Z,64.13
2018-07-31T03:14:22.749Z,64.48
2018-07-31T03:16:51.925Z,64.13
2018-07-31T03:19:21.096Z,64.44
2018-07-31T03:21:50.258Z,65.62
2018-07-31T03:24:19.421Z,65.00
2018-07-31T03:26:48.588Z,63.64
2018-07-31T03:29:17.757Z,63.97
2018-07-31T03:31:46.920Z,65.01
2018-07-31T03:34:16.093Z,65.41
2018-07-31T03:36:45.269Z,66.05
2018-07-31T03:39:14.429Z,65.11
2018-07-31T03:41:43.599Z,66.67
2018-07-31T03:44:12.772Z,63.89
2018-07-31T03:46:41.946Z,64.94
2018-07-31T03:49:11.121Z,65.43
2018-07-31T03:51:40.280Z,65.78
2018-07-31T03:54:09.285Z,65.53
2018-07-31T03:56:38.456Z,65.25
2018-07-31T03:59:07.628Z,64.16
2018-07-31T04:01:36.800Z,62.49
2018-07-31T04:04:06.060Z,62.74
2018-07-31T04:06:35.232Z,62.85
2018-07-31T04:09:06.709Z,62.73
2018-07-31T04:11:35.655Z,62.82
2018-07-31T04:14:04.833Z,62.79
2018-07-31T04:16:33.992Z,63.66
2018-07-31T04:19:03.156Z,63.89
2018-07-31T04:21:32.316Z,65.14
2018-07-31T04:24:01.588Z,64.67
2018-07-31T04:26:30.752Z,64.27
2018-07-31T04:28:59.924Z,63.54
2018-07-31T04:31:29.085Z,64.62
2018-07-31T04:33:58.259Z,64.50
2018-07-31T04:36:27.411Z,65.21
2018-07-31T04:38:56.577Z,64.98
2018-07-31T04:41:25.763Z,66.54
2018-07-31T04:43:54.944Z,67.14
2018-07-31T04:46:24.099Z,66.73
2018-07-31T04:48:53.821Z,66.96
2018-07-31T04:51:22.985Z,67.00
2018-07-31T04:53:52.151Z,66.71
2018-07-31T04:56:21.317Z,66.84
2018-07-31T04:58:51.042Z,66.78
2018-07-31T05:01:20.234Z,66.38
2018-07-31T05:03:49.388Z,66.33
2018-07-31T05:06:18.551Z,66.33
2018-07-31T05:08:47.488Z,65.47
2018-07-31T05:11:16.664Z,64.99
2018-07-31T05:13:45.828Z,65.04
2018-07-31T05:16:14.996Z,64.40
2018-07-31T05:18:44.164Z,64.87
2018-07-31T05:21:13.331Z,64.36
2018-07-31T05:23:42.488Z,63.76
2018-07-31T05:26:11.656Z,63.57
2018-07-31T05:28:40.829Z,63.60
2018-07-31T05:31:10.003Z,62.88
2018-07-31T05:33:39.177Z,63.21
2018-07-31T05:36:08.344Z,64.04
2018-07-31T05:38:37.508Z,63.43
2018-07-31T05:41:06.465Z,63.06
2018-07-31T05:43:35.624Z,62.19
2018-07-31T05:46:04.835Z,61.09
2018-07-31T05:48:33.740Z,60.14
2018-07-31T05:51:02.921Z,59.77
2018-07-31T05:53:32.482Z,59.82
2018-07-31T05:56:02.095Z,58.66
2018-07-31T05:58:31.260Z,58.77
2018-07-31T06:01:00.432Z,59.18
2018-07-31T06:03:29.647Z,59.04
2018-07-31T06:05:58.803Z,59.30
2018-07-31T06:08:27.977Z,59.24
2018-07-31T06:10:57.165Z,59.33
2018-07-31T06:13:26.333Z,58.76
2018-07-31T06:15:55.489Z,58.99
2018-07-31T06:18:24.663Z,59.37
2018-07-31T06:20:53.939Z,59.33
2018-07-31T06:23:23.117Z,58.21
2018-07-31T06:25:52.286Z,57.85
2018-07-31T06:28:21.464Z,57.55
2018-07-31T06:30:50.624Z,57.05
2018-07-31T06:33:19.848Z,56.59
2018-07-31T06:35:49.016Z,56.31
2018-07-31T06:38:18.198Z,57.05
2018-07-31T06:40:47.360Z,56.45
2018-07-31T06:43:16.547Z,56.54
2018-07-31T06:45:45.708Z,56.00
2018-07-31T06:48:14.928Z,55.52
2018-07-31T06:50:44.111Z,54.37
2018-07-31T06:53:13.293Z,55.09
2018-07-31T06:55:42.468Z,54.42
2018-07-31T06:58:11.655Z,54.61
2018-07-31T07:00:40.833Z,54.41
2018-07-31T07:03:10.014Z,53.99
2018-07-31T07:05:39.188Z,53.30
2018-07-31T07:08:08.356Z,53.43
2018-07-31T07:10:37.549Z,52.71
2018-07-31T07:13:06.748Z,52.70
2018-07-31T07:15:36.016Z,51.94
2018-07-31T07:18:05.308Z,52.49
2018-07-31T07:20:34.489Z,51.78
2018-07-31T07:23:03.673Z,51.67
2018-07-31T07:25:32.845Z,51.37
2018-07-31T07:28:02.088Z,51.24
2018-07-31T07:30:31.197Z,49.67
2018-07-31T07:33:00.376Z,49.94
2018-07-31T07:35:29.574Z,49.16
2018-07-31T07:37:58.989Z,47.64
2018-07-31T07:40:28.169Z,47.54
2018-07-31T07:42:57.350Z,46.88
2018-07-31T07:45:26.517Z,47.53
2018-07-31T07:47:55.690Z,46.84
2018-07-31T07:50:24.867Z,46.07
2018-07-31T07:52:54.036Z,44.21
2018-07-31T07:55:23.213Z,44.35
2018-07-31T07:57:52.384Z,43.28
2018-07-31T08:00:21.561Z,42.66
2018-07-31T08:02:50.736Z,42.17
2018-07-31T08:05:19.920Z,41.68
2018-07-31T08:07:49.094Z,42.44
2018-07-31T08:10:18.265Z,42.64
2018-07-31T08:12:47.455Z,43.35
2018-07-31T08:15:16.400Z,42.86
2018-07-31T08:17:45.576Z,42.62
2018-07-31T08:20:14.785Z,41.99
2018-07-31T08:22:43.977Z,41.01
2018-07-31T08:25:13.112Z,40.50
2018-07-31T08:27:42.336Z,40.73
2018-07-31T08:30:11.482Z,40.92
2018-07-31T08:32:40.666Z,41.47
2018-07-31T08:35:09.828Z,41.01
2018-07-31T08:37:39.016Z,40.26
2018-07-31T08:40:08.192Z,39.33
2018-07-31T08:42:37.374Z,39.64
2018-07-31T08:45:06.807Z,38.47
2018-07-31T08:47:35.987Z,38.77
2018-07-31T08:50:05.415Z,38.50
2018-07-31T08:52:34.348Z,37.86
2018-07-31T08:55:03.512Z,38.05
2018-07-31T08:57:32.697Z,37.66
2018-07-31T09:00:01.880Z,38.21
2018-07-31T09:02:31.061Z,37.08
2018-07-31T09:05:00.232Z,37.80
2018-07-31T09:07:29.405Z,36.56
2018-07-31T09:09:58.587Z,37.10
2018-07-31T09:12:27.721Z,36.67
2018-07-31T09:14:56.856Z,36.78
2018-07-31T09:17:25.999Z,36.65
2018-07-31T09:19:55.133Z,36.92
2018-07-31T09:22:24.264Z,36.55
2018-07-31T09:24:53.520Z,36.82
2018-07-31T09:27:22.626Z,35.89
2018-07-31T09:29:51.777Z,36.12
2018-07-31T09:32:26.114Z,35.37
2018-07-31T09:34:55.254Z,35.75
2018-07-31T09:37:24.394Z,35.89
2018-07-31T09:39:53.562Z,35.14
2018-07-31T09:42:22.482Z,35.35
2018-07-31T09:44:51.622Z,34.71
2018-07-31T09:47:20.754Z,35.10
2018-07-31T09:49:49.897Z,33.89
2018-07-31T09:52:19.034Z,33.59
2018-07-31T09:54:48.169Z,32.84
2018-07-31T09:57:17.346Z,33.03
2018-07-31T09:59:46.441Z,32.90
2018-07-31T10:02:15.598Z,33.55
2018-07-31T10:04:44.735Z,33.28
2018-07-31T10:07:13.861Z,32.66
2018-07-31T10:09:42.985Z,32.09
2018-07-31T10:12:12.164Z,31.72
2018-07-31T10:14:41.243Z,32.13
2018-07-31T10:17:10.380Z,31.61
2018-07-31T10:19:39.510Z,31.03
2018-07-31T10:22:08.656Z,30.69
2018-07-31T10:24:37.835Z,31.12
2018-07-31T10:27:07.167Z,32.31
2018-07-31T10:29:36.315Z,30.55
2018-07-31T10:32:05.481Z,31.25
2018-07-31T10:34:34.613Z,30.36
2018-07-31T10:37:03.757Z,29.53
2018-07-31T10:39:32.894Z,28.65
2018-07-31T10:42:02.034Z,28.13
2018-07-31T10:44:31.156Z,28.55
2018-07-31T10:47:00.289Z,27.04
2018-07-31T10:49:29.416Z,26.60
2018-07-31T10:51:58.560Z,28.05
2018-07-31T10:54:27.703Z,27.79
2018-07-31T10:56:56.830Z,27.21
2018-07-31T10:59:25.728Z,28.49
2018-07-31T11:01:54.645Z,27.44
2018-07-31T11:04:23.853Z,26.20
2018-07-31T11:06:52.947Z,26.34
2018-07-31T11:09:22.112Z,25.26
2018-07-31T11:11:51.308Z,24.97
2018-07-31T11:14:20.490Z,25.75
2018-07-31T11:16:49.649Z,23.94
2018-07-31T11:19:18.823Z,22.59
2018-07-31T11:21:48.033Z,23.54
2018-07-31T11:24:17.210Z,24.96
2018-07-31T11:26:46.381Z,24.21
2018-07-31T11:29:15.621Z,25.03
2018-07-31T11:31:44.840Z,25.09
2018-07-31T11:34:14.018Z,24.75
2018-07-31T11:36:43.189Z,23.68
2018-07-31T11:39:12.612Z,24.08
2018-07-31T11:41:44.689Z,24.77
2018-07-31T11:44:13.853Z,22.57
2018-07-31T11:46:43.072Z,23.18
2018-07-31T11:49:12.270Z,23.39
2018-07-31T11:51:41.449Z,24.26
2018-07-31T11:54:10.389Z,25.53
2018-07-31T11:56:39.567Z,22.79
2018-07-31T11:59:08.786Z,23.12
2018-07-31T12:01:37.994Z,21.85
2018-07-31T12:04:07.159Z,22.98
2018-07-31T12:06:36.326Z,22.50
2018-07-31T12:09:10.951Z,23.15
2018-07-31T12:11:40.108Z,21.64
2018-07-31T12:14:09.278Z,20.31
2018-07-31T12:16:38.441Z,22.58
2018-07-31T12:19:07.710Z,23.17
2018-07-31T12:21:36.876Z,22.25
2018-07-31T12:24:06.083Z,23.47
2018-07-31T12:26:35.239Z,22.11
2018-07-31T12:29:04.401Z,23.91
2018-07-31T12:31:33.564Z,22.22
2018-07-31T12:34:02.729Z,23.07
2018-07-31T12:36:31.910Z,22.27
2018-07-31T12:39:00.853Z,23.13
2018-07-31T12:41:30.029Z,23.63
2018-07-31T12:43:59.243Z,23.84
2018-07-31T12:46:28.383Z,22.63
2018-07-31T12:48:57.316Z,22.28
2018-07-31T12:51:26.481Z,21.45
2018-07-31T12:53:55.403Z,20.41
2018-07-31T12:56:24.584Z,18.96
2018-07-31T12:58:53.744Z,21.09
2018-07-31T13:01:22.929Z,21.55
2018-07-31T13:03:52.531Z,19.78
2018-07-31T13:06:21.723Z,20.49
2018-07-31T13:08:50.893Z,22.17
2018-07-31T13:11:20.076Z,20.87
2018-07-31T13:13:49.236Z,20.63
2018-07-31T13:16:18.422Z,18.71
2018-07-31T13:18:47.590Z,18.92
2018-07-31T13:21:16.753Z,20.48
2018-07-31T13:23:45.908Z,21.36
2018-07-31T13:26:15.087Z,22.20
2018-07-31T13:28:44.244Z,21.59
2018-07-31T13:31:13.412Z,21.02
2018-07-31T13:33:42.589Z,21.31
2018-07-31T13:36:11.762Z,21.41
2018-07-31T13:38:40.929Z,21.49
2018-07-31T13:41:10.093Z,21.32
2018-07-31T13:43:39.322Z,21.83
2018-07-31T13:46:08.455Z,22.17
2018-07-31T13:48:37.640Z,22.78
2018-07-31T13:51:07.134Z,22.57
2018-07-31T13:53:36.305Z,22.58
2018-07-31T13:56:05.494Z,21.75
2018-07-31T13:58:34.666Z,22.18
2018-07-31T14:01:03.840Z,22.26
2018-07-31T14:03:33.021Z,23.67
2018-07-31T14:06:02.188Z,23.71
2018-07-31T14:08:31.368Z,21.93
2018-07-31T14:11:00.529Z,22.64
2018-07-31T14:13:29.730Z,23.51
2018-07-31T14:15:59.712Z,23.01
2018-07-31T14:18:28.915Z,22.34
2018-07-31T14:20:58.095Z,22.37
2018-07-31T14:23:27.265Z,22.43
2018-07-31T14:25:56.464Z,21.21
2018-07-31T14:28:25.636Z,21.17
2018-07-31T14:30:54.896Z,21.77
2018-07-31T14:33:24.004Z,22.28
2018-07-31T14:35:53.176Z,21.79
2018-07-31T14:38:22.384Z,23.07
2018-07-31T14:40:51.352Z,22.76
2018-07-31T14:43:20.877Z,22.09
2018-07-31T14:45:50.060Z,23.10
2018-07-31T14:48:19.237Z,23.04
2018-07-31T14:50:48.425Z,23.28
2018-07-31T14:53:17.597Z,22.22
2018-07-31T14:55:46.777Z,23.07
2018-07-31T14:58:15.953Z,22.73
2018-07-31T15:00:45.142Z,22.86
2018-07-31T15:03:14.316Z,23.47
2018-07-31T15:05:43.502Z,22.59
2018-07-31T15:08:12.685Z,22.96
2018-07-31T15:10:41.898Z,22.62
2018-07-31T15:13:11.073Z,23.36
2018-07-31T15:15:40.255Z,24.28
2018-07-31T15:18:09.428Z,25.21
2018-07-31T15:20:38.472Z,25.38
2018-07-31T15:23:07.649Z,23.48
2018-07-31T15:25:36.919Z,25.29
2018-07-31T15:28:06.159Z,24.13
2018-07-31T15:30:35.060Z,24.23
2018-07-31T15:33:04.250Z,25.24
2018-07-31T15:35:33.473Z,24.98
2018-07-31T15:38:02.625Z,25.79
2018-07-31T15:40:31.814Z,25.60
2018-07-31T15:43:00.769Z,25.40
2018-07-31T15:45:29.946Z,26.04
2018-07-31T15:47:59.130Z,26.39
2018-07-31T15:50:28.813Z,26.01
2018-07-31T15:52:58.227Z,26.43
2018-07-31T15:55:27.617Z,26.30
2018-07-31T15:57:56.814Z,25.88
2018-07-31T16:00:25.779Z,25.59
2018-07-31T16:02:54.964Z,25.97
2018-07-31T16:05:24.164Z,26.02
2018-07-31T16:07:53.358Z,26.07
2018-07-31T16:10:22.541Z,24.32
2018-07-31T16:12:51.730Z,25.39
2018-07-31T16:15:20.910Z,23.79
2018-07-31T16:17:50.160Z,22.90
2018-07-31T16:20:19.348Z,22.16
2018-07-31T16:22:48.544Z,21.26
2018-07-31T16:25:17.730Z,21.13
2018-07-31T16:27:46.906Z,21.33
2018-07-31T16:30:16.090Z,23.39
2018-07-31T16:32:45.267Z,24.85
2018-07-31T16:35:14.464Z,25.13
2018-07-31T16:37:43.414Z,25.23
2018-07-31T16:40:12.773Z,24.66
2018-07-31T16:42:42.655Z,25.09
2018-07-31T16:45:12.007Z,26.77
2018-07-31T16:47:41.287Z,26.21
2018-07-31T16:50:10.644Z,25.91
2018-07-31T16:52:40.326Z,27.03
2018-07-31T16:55:09.524Z,26.73
2018-07-31T16:57:38.776Z,27.58
2018-07-31T17:00:08.771Z,29.36
2018-07-31T17:02:38.348Z,29.37
2018-07-31T17:05:08.346Z,29.71
2018-07-31T17:07:37.973Z,29.38
2018-07-31T17:13:10.261Z,28.23
2018-07-31T17:15:39.912Z,27.34
2018-07-31T17:18:09.833Z,28.51
2018-07-31T17:20:39.398Z,28.56
2018-07-31T17:23:09.168Z,29.03
2018-07-31T17:25:38.731Z,28.71
2018-07-31T17:28:08.966Z,28.21
2018-07-31T17:30:38.445Z,28.26
2018-07-31T17:33:09.704Z,29.52
2018-07-31T17:35:40.140Z,29.28
2018-07-31T17:38:11.479Z,29.13
2018-07-31T17:40:42.339Z,28.67
2018-07-31T17:43:12.567Z,27.97
2018-07-31T17:45:42.390Z,28.10
2018-07-31T17:48:11.864Z,29.21
2018-07-31T17:50:41.011Z,31.28
2018-07-31T17:53:10.471Z,32.34
2018-07-31T17:55:39.920Z,31.68
2018-07-31T17:58:09.366Z,31.48
2018-07-31T18:00:38.629Z,31.65
2018-07-31T18:03:07.986Z,31.88
2018-07-31T18:05:37.394Z,32.43
2018-07-31T18:08:06.658Z,33.56
2018-07-31T18:10:35.917Z,34.19
2018-07-31T18:13:05.313Z,34.63
2018-07-31T18:15:34.615Z,35.07
2018-07-31T18:18:03.986Z,35.07
2018-07-31T18:20:33.293Z,35.14
2018-07-31T18:23:02.660Z,35.38
2018-07-31T18:25:32.057Z,35.40
2018-07-31T18:28:01.470Z,33.45
2018-07-31T18:30:30.821Z,33.70
2018-07-31T18:33:00.112Z,33.74
2018-07-31T18:35:29.408Z,34.37
2018-07-31T18:37:58.822Z,34.26
2018-07-31T18:40:28.148Z,34.38
2018-07-31T18:42:57.594Z,33.42
2018-07-31T18:45:27.277Z,33.68
2018-07-31T18:47:56.770Z,34.30
2018-07-31T18:50:26.156Z,34.56
2018-07-31T18:52:55.421Z,34.10
2018-07-31T18:55:24.691Z,34.42
2018-07-31T18:57:53.967Z,35.00
2018-07-31T19:00:23.256Z,35.40
2018-07-31T19:02:52.540Z,36.26
2018-07-31T19:05:21.976Z,36.29
2018-07-31T19:07:51.223Z,36.30
2018-07-31T19:10:20.543Z,36.20
2018-07-31T19:12:49.804Z,36.01
2018-07-31T19:15:19.349Z,36.83
2018-07-31T19:17:48.619Z,36.29
2018-07-31T19:20:17.931Z,36.53
2018-07-31T19:22:47.184Z,37.11
2018-07-31T19:25:16.596Z,37.09
2018-07-31T19:27:45.884Z,37.66
2018-07-31T19:30:15.267Z,38.17
2018-07-31T19:32:44.546Z,38.29
2018-07-31T19:35:13.826Z,38.00
2018-07-31T19:37:42.828Z,37.79
2018-07-31T19:40:12.096Z,38.35
2018-07-31T19:42:41.386Z,38.01
2018-07-31T19:45:10.639Z,38.33
2018-07-31T19:47:39.840Z,38.64
2018-07-31T19:50:09.037Z,38.23
2018-07-31T19:52:38.266Z,39.51
2018-07-31T19:55:07.515Z,39.37
2018-07-31T19:57:36.707Z,39.42
2018-07-31T20:00:06.729Z,39.60
2018-07-31T20:02:35.897Z,39.81
2018-07-31T20:05:05.399Z,39.99
2018-07-31T20:07:35.110Z,39.27
2018-07-31T20:10:04.905Z,38.87
2018-07-31T20:12:34.154Z,40.73
2018-07-31T20:15:03.431Z,40.25
2018-07-31T20:17:32.616Z,41.53
2018-07-31T20:20:01.818Z,40.84
2018-07-31T20:22:31.012Z,40.02
2018-07-31T20:25:00.219Z,39.95
2018-07-31T20:27:29.549Z,39.36
2018-07-31T20:29:58.802Z,40.17
2018-07-31T20:32:28.062Z,39.34
2018-07-31T20:34:57.258Z,41.09
2018-07-31T20:37:26.520Z,40.94
2018-07-31T20:39:55.738Z,39.90
2018-07-31T20:42:25.098Z,40.55
2018-07-31T20:44:54.386Z,40.76
2018-07-31T20:47:23.631Z,40.52
2018-07-31T20:49:52.886Z,40.32
2018-07-31T20:52:22.162Z,40.54
2018-07-31T20:54:51.734Z,40.92
2018-07-31T20:57:22.139Z,41.61
2018-07-31T20:59:52.272Z,41.04
2018-07-31T21:06:09.601Z,41.32
2018-07-31T21:08:39.034Z,42.71
2018-07-31T21:11:09.167Z,42.41
2018-07-31T21:13:38.782Z,42.48
2018-07-31T21:16:08.493Z,43.06
2018-07-31T21:18:38.265Z,43.12
2018-07-31T21:21:08.866Z,43.16
2018-07-31T21:23:38.150Z,42.50
2018-07-31T21:26:07.403Z,42.73
2018-07-31T21:28:36.585Z,43.98
2018-07-31T21:31:05.733Z,43.26
2018-07-31T21:33:34.884Z,43.27
2018-07-31T21:36:04.035Z,44.46
2018-07-31T21:38:33.188Z,44.70
2018-07-31T21:41:02.392Z,44.68
2018-07-31T21:43:31.547Z,44.61
2018-07-31T21:46:00.698Z,45.96
2018-07-31T21:48:29.843Z,45.07
2018-07-31T21:50:58.996Z,44.64
2018-07-31T21:53:28.145Z,45.98
2018-07-31T21:55:57.299Z,46.16
2018-07-31T21:58:26.453Z,44.15
2018-07-31T22:01:00.967Z,44.75
2018-07-31T22:03:30.263Z,45.24
2018-07-31T22:05:59.184Z,44.04
2018-07-31T22:08:28.343Z,44.55
2018-07-31T22:10:57.513Z,44.50
2018-07-31T22:13:26.659Z,45.29
2018-07-31T22:15:55.824Z,45.66
2018-07-31T22:18:24.973Z,44.78
2018-07-31T22:20:54.160Z,44.74
2018-07-31T22:23:23.304Z,45.09
2018-07-31T22:25:52.461Z,45.81
2018-07-31T22:28:21.611Z,44.52
2018-07-31T22:30:50.776Z,45.79
2018-07-31T22:33:19.921Z,45.65
2018-07-31T22:35:48.835Z,45.63
2018-07-31T22:38:17.996Z,44.98
2018-07-31T22:40:47.139Z,44.21
2018-07-31T22:43:16.303Z,45.99
2018-07-31T22:45:45.448Z,44.76
2018-07-31T22:48:14.605Z,44.60
2018-07-31T22:50:43.751Z,45.09
2018-07-31T22:53:12.903Z,44.51
2018-07-31T22:55:42.054Z,44.38
2018-07-31T22:58:11.204Z,44.66
2018-07-31T23:00:40.348Z,44.76
2018-07-31T23:03:09.500Z,45.14
2018-07-31T23:05:38.656Z,44.87
2018-07-31T23:08:07.809Z,45.39
2018-07-31T23:10:36.980Z,45.02
2018-07-31T23:13:06.125Z,45.34
2018-07-31T23:15:35.263Z,45.47
2018-07-31T23:18:04.191Z,44.92
2018-07-31T23:20:33.341Z,45.04
2018-07-31T23:23:02.497Z,45.25
2018-07-31T23:25:31.661Z,44.50
2018-07-31T23:28:00.815Z,44.58
2018-07-31T23:30:30.401Z,44.27
2018-07-31T23:32:59.553Z,44.64
2018-07-31T23:35:28.699Z,44.35
2018-07-31T23:37:57.852Z,43.98
2018-07-31T23:40:27.010Z,44.34
2018-07-31T23:42:56.152Z,45.04
2018-07-31T23:45:25.310Z,45.70
2018-07-31T23:47:54.453Z,45.68
2018-07-31T23:50:23.608Z,46.71
2018-07-31T23:52:52.761Z,47.83
2018-07-31T23:55:21.915Z,48.18
2018-07-31T23:57:51.071Z,48.53
